sensor_id;sensor_type;location;lat;lon;timestamp;temperature;humidity
47546;DHT22;50104;52.002;4.688;2023-03-14T00:03:44;11.80;80.30
47546;DHT22;50104;52.002;4.688;2023-03-14T00:08:45;11.80;80.40
47546;DHT22;50104;52.002;4.688;2023-03-14T00:13:49;11.80;80.40
47546;DHT22;50104;52.002;4.688;2023-03-14T00:18:51;11.80;80.40
47546;DHT22;50104;52.002;4.688;2023-03-14T00:23:52;11.80;80.40
47546;DHT22;50104;52.002;4.688;2023-03-14T00:28:53;11.80;80.60
47546;DHT22;50104;52.002;4.688;2023-03-14T00:33:55;11.80;80.60
47546;DHT22;50104;52.002;4.688;2023-03-14T00:38:55;11.80;80.80
47546;DHT22;50104;52.002;4.688;2023-03-14T00:43:56;11.70;81.10
47546;DHT22;50104;52.002;4.688;2023-03-14T00:48:57;11.70;81.20
47546;DHT22;50104;52.002;4.688;2023-03-14T00:53:59;11.60;81.50
47546;DHT22;50104;52.002;4.688;2023-03-14T00:59:00;11.60;81.80
47546;DHT22;50104;52.002;4.688;2023-03-14T01:04:01;11.60;81.80
47546;DHT22;50104;52.002;4.688;2023-03-14T01:09:04;11.60;82.00
47546;DHT22;50104;52.002;4.688;2023-03-14T01:14:04;11.60;81.90
47546;DHT22;50104;52.002;4.688;2023-03-14T01:19:05;11.60;82.10
47546;DHT22;50104;52.002;4.688;2023-03-14T01:24:06;11.50;82.10
47546;DHT22;50104;52.002;4.688;2023-03-14T01:29:07;11.50;82.20
47546;DHT22;50104;52.002;4.688;2023-03-14T01:34:15;11.50;82.20
47546;DHT22;50104;52.002;4.688;2023-03-14T01:39:21;11.50;82.50
47546;DHT22;50104;52.002;4.688;2023-03-14T01:44:24;11.40;82.50
47546;DHT22;50104;52.002;4.688;2023-03-14T01:49:33;11.40;82.40
47546;DHT22;50104;52.002;4.688;2023-03-14T01:54:37;11.40;82.40
47546;DHT22;50104;52.002;4.688;2023-03-14T01:59:42;11.40;82.80
47546;DHT22;50104;52.002;4.688;2023-03-14T02:04:46;11.40;82.60
47546;DHT22;50104;52.002;4.688;2023-03-14T02:09:48;11.40;82.60
47546;DHT22;50104;52.002;4.688;2023-03-14T02:14:49;11.40;82.60
47546;DHT22;50104;52.002;4.688;2023-03-14T02:26:01;11.40;82.50
47546;DHT22;50104;52.002;4.688;2023-03-14T02:31:08;11.30;82.60
47546;DHT22;50104;52.002;4.688;2023-03-14T02:36:11;11.30;82.70
47546;DHT22;50104;52.002;4.688;2023-03-14T02:41:15;11.30;82.80
47546;DHT22;50104;52.002;4.688;2023-03-14T02:46:19;11.20;82.90
47546;DHT22;50104;52.002;4.688;2023-03-14T02:51:21;11.20;83.10
47546;DHT22;50104;52.002;4.688;2023-03-14T02:56:23;11.20;83.10
47546;DHT22;50104;52.002;4.688;2023-03-14T03:01:24;11.20;83.10
47546;DHT22;50104;52.002;4.688;2023-03-14T03:06:25;11.20;83.20
47546;DHT22;50104;52.002;4.688;2023-03-14T03:11:26;11.20;83.10
47546;DHT22;50104;52.002;4.688;2023-03-14T03:16:27;11.10;83.40
47546;DHT22;50104;52.002;4.688;2023-03-14T03:21:28;11.10;83.30
47546;DHT22;50104;52.002;4.688;2023-03-14T03:26:34;11.00;83.40
47546;DHT22;50104;52.002;4.688;2023-03-14T03:31:37;11.00;83.80
47546;DHT22;50104;52.002;4.688;2023-03-14T03:36:39;11.00;83.70
47546;DHT22;50104;52.002;4.688;2023-03-14T03:41:40;11.00;83.80
47546;DHT22;50104;52.002;4.688;2023-03-14T03:46:41;10.90;83.90
47546;DHT22;50104;52.002;4.688;2023-03-14T03:51:42;10.90;83.80
47546;DHT22;50104;52.002;4.688;2023-03-14T03:56:42;11.00;83.80
47546;DHT22;50104;52.002;4.688;2023-03-14T04:01:43;10.90;84.10
47546;DHT22;50104;52.002;4.688;2023-03-14T04:06:44;10.90;84.00
47546;DHT22;50104;52.002;4.688;2023-03-14T04:11:45;10.90;84.10
47546;DHT22;50104;52.002;4.688;2023-03-14T04:16:46;10.90;83.90
47546;DHT22;50104;52.002;4.688;2023-03-14T04:21:47;10.90;84.00
47546;DHT22;50104;52.002;4.688;2023-03-14T04:26:48;10.90;84.10
47546;DHT22;50104;52.002;4.688;2023-03-14T04:31:49;10.90;84.30
47546;DHT22;50104;52.002;4.688;2023-03-14T04:36:50;10.90;84.50
47546;DHT22;50104;52.002;4.688;2023-03-14T04:41:51;10.90;84.60
47546;DHT22;50104;52.002;4.688;2023-03-14T04:46:52;10.90;84.50
47546;DHT22;50104;52.002;4.688;2023-03-14T04:51:53;10.90;85.10
47546;DHT22;50104;52.002;4.688;2023-03-14T04:56:53;10.90;85.00
47546;DHT22;50104;52.002;4.688;2023-03-14T05:01:54;10.90;85.10
47546;DHT22;50104;52.002;4.688;2023-03-14T05:06:55;10.90;85.20
47546;DHT22;50104;52.002;4.688;2023-03-14T05:11:56;10.80;85.40
47546;DHT22;50104;52.002;4.688;2023-03-14T05:16:56;10.80;85.50
47546;DHT22;50104;52.002;4.688;2023-03-14T05:21:57;10.80;85.60
47546;DHT22;50104;52.002;4.688;2023-03-14T05:26:58;10.80;86.00
47546;DHT22;50104;52.002;4.688;2023-03-14T05:31:59;10.80;85.90
47546;DHT22;50104;52.002;4.688;2023-03-14T05:37:00;10.70;86.20
47546;DHT22;50104;52.002;4.688;2023-03-14T05:42:00;10.70;86.60
47546;DHT22;50104;52.002;4.688;2023-03-14T05:47:03;10.60;86.80
47546;DHT22;50104;52.002;4.688;2023-03-14T05:52:03;10.60;87.50
47546;DHT22;50104;52.002;4.688;2023-03-14T05:57:05;10.50;87.10
47546;DHT22;50104;52.002;4.688;2023-03-14T06:02:06;10.50;86.60
47546;DHT22;50104;52.002;4.688;2023-03-14T06:07:07;10.40;86.30
47546;DHT22;50104;52.002;4.688;2023-03-14T06:12:08;10.30;86.40
47546;DHT22;50104;52.002;4.688;2023-03-14T06:17:09;10.20;86.10
47546;DHT22;50104;52.002;4.688;2023-03-14T06:22:10;10.20;86.00
47546;DHT22;50104;52.002;4.688;2023-03-14T06:27:10;10.10;86.20
47546;DHT22;50104;52.002;4.688;2023-03-14T06:32:11;10.00;86.20
47546;DHT22;50104;52.002;4.688;2023-03-14T06:37:12;10.00;86.40
47546;DHT22;50104;52.002;4.688;2023-03-14T06:42:13;9.90;86.20
47546;DHT22;50104;52.002;4.688;2023-03-14T06:47:14;9.90;86.50
47546;DHT22;50104;52.002;4.688;2023-03-14T06:52:14;9.80;86.70
47546;DHT22;50104;52.002;4.688;2023-03-14T06:57:15;9.80;86.40
47546;DHT22;50104;52.002;4.688;2023-03-14T07:02:16;9.70;86.40
47546;DHT22;50104;52.002;4.688;2023-03-14T07:07:17;9.70;86.20
47546;DHT22;50104;52.002;4.688;2023-03-14T07:12:17;9.60;86.20
47546;DHT22;50104;52.002;4.688;2023-03-14T07:17:18;9.60;86.80
47546;DHT22;50104;52.002;4.688;2023-03-14T07:22:19;9.50;86.90
47546;DHT22;50104;52.002;4.688;2023-03-14T07:27:20;9.50;86.90
47546;DHT22;50104;52.002;4.688;2023-03-14T07:32:20;9.50;86.90
47546;DHT22;50104;52.002;4.688;2023-03-14T07:37:21;9.40;87.20
47546;DHT22;50104;52.002;4.688;2023-03-14T07:42:22;9.40;87.10
47546;DHT22;50104;52.002;4.688;2023-03-14T07:47:23;9.40;87.10
47546;DHT22;50104;52.002;4.688;2023-03-14T07:52:24;9.40;87.20
47546;DHT22;50104;52.002;4.688;2023-03-14T07:57:25;9.40;87.10
47546;DHT22;50104;52.002;4.688;2023-03-14T08:02:26;9.40;87.50
47546;DHT22;50104;52.002;4.688;2023-03-14T08:07:26;9.30;87.40
47546;DHT22;50104;52.002;4.688;2023-03-14T08:12:27;9.30;86.90
47546;DHT22;50104;52.002;4.688;2023-03-14T08:17:28;9.20;86.80
47546;DHT22;50104;52.002;4.688;2023-03-14T08:22:29;9.20;86.50
47546;DHT22;50104;52.002;4.688;2023-03-14T08:27:29;9.10;86.90
47546;DHT22;50104;52.002;4.688;2023-03-14T08:32:32;9.10;86.90
47546;DHT22;50104;52.002;4.688;2023-03-14T08:37:33;9.10;86.70
47546;DHT22;50104;52.002;4.688;2023-03-14T08:42:36;9.10;86.60
47546;DHT22;50104;52.002;4.688;2023-03-14T08:47:38;9.10;86.90
47546;DHT22;50104;52.002;4.688;2023-03-14T08:52:39;9.10;86.60
47546;DHT22;50104;52.002;4.688;2023-03-14T08:57:41;9.10;86.30
47546;DHT22;50104;52.002;4.688;2023-03-14T09:02:42;9.10;86.00
47546;DHT22;50104;52.002;4.688;2023-03-14T09:07:44;9.10;85.80
47546;DHT22;50104;52.002;4.688;2023-03-14T09:12:45;9.20;85.60
47546;DHT22;50104;52.002;4.688;2023-03-14T09:17:46;9.20;85.20
47546;DHT22;50104;52.002;4.688;2023-03-14T09:22:46;9.20;85.20
47546;DHT22;50104;52.002;4.688;2023-03-14T09:27:47;9.20;85.30
47546;DHT22;50104;52.002;4.688;2023-03-14T09:32:48;9.30;85.10
47546;DHT22;50104;52.002;4.688;2023-03-14T09:37:49;9.30;84.90
47546;DHT22;50104;52.002;4.688;2023-03-14T09:42:52;9.30;84.60
47546;DHT22;50104;52.002;4.688;2023-03-14T09:47:55;9.40;84.30
47546;DHT22;50104;52.002;4.688;2023-03-14T09:53:03;9.40;84.00
47546;DHT22;50104;52.002;4.688;2023-03-14T09:58:12;9.30;84.10
47546;DHT22;50104;52.002;4.688;2023-03-14T10:03:32;9.20;83.60
47546;DHT22;50104;52.002;4.688;2023-03-14T10:08:34;9.10;83.60
47546;DHT22;50104;52.002;4.688;2023-03-14T10:13:35;9.10;84.20
47546;DHT22;50104;52.002;4.688;2023-03-14T10:18:48;9.10;84.50
47546;DHT22;50104;52.002;4.688;2023-03-14T10:23:49;9.00;84.60
47546;DHT22;50104;52.002;4.688;2023-03-14T10:29:01;9.10;84.60
47546;DHT22;50104;52.002;4.688;2023-03-14T10:34:04;9.00;84.00
47546;DHT22;50104;52.002;4.688;2023-03-14T10:44:30;9.10;83.80
47546;DHT22;50104;52.002;4.688;2023-03-14T10:49:34;9.10;83.70
47546;DHT22;50104;52.002;4.688;2023-03-14T10:54:38;9.20;83.40
47546;DHT22;50104;52.002;4.688;2023-03-14T10:59:41;9.20;82.90
47546;DHT22;50104;52.002;4.688;2023-03-14T11:15:39;9.20;82.30
47546;DHT22;50104;52.002;4.688;2023-03-14T11:26:30;9.30;82.50
47546;DHT22;50104;52.002;4.688;2023-03-14T11:31:37;9.30;82.00
47546;DHT22;50104;52.002;4.688;2023-03-14T11:36:44;9.30;81.80
47546;DHT22;50104;52.002;4.688;2023-03-14T11:41:57;9.40;82.00
47546;DHT22;50104;52.002;4.688;2023-03-14T11:47:03;9.40;82.10
47546;DHT22;50104;52.002;4.688;2023-03-14T11:57:32;9.70;81.90
47546;DHT22;50104;52.002;4.688;2023-03-14T12:02:39;9.80;81.20
47546;DHT22;50104;52.002;4.688;2023-03-14T12:13:10;10.00;80.00
47546;DHT22;50104;52.002;4.688;2023-03-14T12:18:41;10.10;79.20
47546;DHT22;50104;52.002;4.688;2023-03-14T12:23:53;10.10;77.30
47546;DHT22;50104;52.002;4.688;2023-03-14T12:29:19;10.10;78.20
47546;DHT22;50104;52.002;4.688;2023-03-14T12:34:32;10.20;78.10
47546;DHT22;50104;52.002;4.688;2023-03-14T12:45:29;10.30;76.40
47546;DHT22;50104;52.002;4.688;2023-03-14T12:50:35;10.30;77.10
47546;DHT22;50104;52.002;4.688;2023-03-14T12:55:54;10.30;77.40
47546;DHT22;50104;52.002;4.688;2023-03-14T13:01:03;10.30;74.60
47546;DHT22;50104;52.002;4.688;2023-03-14T13:06:08;10.40;76.60
47546;DHT22;50104;52.002;4.688;2023-03-14T13:11:19;10.50;76.00
47546;DHT22;50104;52.002;4.688;2023-03-14T13:16:21;10.60;76.10
47546;DHT22;50104;52.002;4.688;2023-03-14T13:21:24;10.70;76.00
47546;DHT22;50104;52.002;4.688;2023-03-14T13:26:34;10.50;70.60
47546;DHT22;50104;52.002;4.688;2023-03-14T13:31:37;10.60;72.20
47546;DHT22;50104;52.002;4.688;2023-03-14T13:36:45;10.70;73.70
47546;DHT22;50104;52.002;4.688;2023-03-14T13:41:46;10.80;72.80
47546;DHT22;50104;52.002;4.688;2023-03-14T13:46:47;10.80;72.90
47546;DHT22;50104;52.002;4.688;2023-03-14T13:51:48;10.90;72.80
47546;DHT22;50104;52.002;4.688;2023-03-14T13:57:02;10.80;72.10
47546;DHT22;50104;52.002;4.688;2023-03-14T14:02:12;10.80;70.30
47546;DHT22;50104;52.002;4.688;2023-03-14T14:07:16;10.70;71.40
47546;DHT22;50104;52.002;4.688;2023-03-14T14:12:45;10.60;71.20
47546;DHT22;50104;52.002;4.688;2023-03-14T14:17:58;10.50;70.70
47546;DHT22;50104;52.002;4.688;2023-03-14T14:23:04;10.40;71.50
47546;DHT22;50104;52.002;4.688;2023-03-14T14:28:24;10.30;70.70
47546;DHT22;50104;52.002;4.688;2023-03-14T14:33:27;10.20;71.20
47546;DHT22;50104;52.002;4.688;2023-03-14T14:38:28;10.10;71.20
47546;DHT22;50104;52.002;4.688;2023-03-14T14:43:35;10.00;71.70
47546;DHT22;50104;52.002;4.688;2023-03-14T14:48:40;9.90;72.50
47546;DHT22;50104;52.002;4.688;2023-03-14T14:53:43;9.80;72.90
47546;DHT22;50104;52.002;4.688;2023-03-14T14:58:46;9.80;73.30
47546;DHT22;50104;52.002;4.688;2023-03-14T15:03:52;9.80;73.70
47546;DHT22;50104;52.002;4.688;2023-03-14T15:08:53;9.70;72.60
47546;DHT22;50104;52.002;4.688;2023-03-14T15:13:54;9.70;73.20
47546;DHT22;50104;52.002;4.688;2023-03-14T15:18:57;9.60;72.80
47546;DHT22;50104;52.002;4.688;2023-03-14T15:23:59;9.60;71.90
47546;DHT22;50104;52.002;4.688;2023-03-14T15:29:00;9.50;72.40
47546;DHT22;50104;52.002;4.688;2023-03-14T15:34:01;9.50;72.60
47546;DHT22;50104;52.002;4.688;2023-03-14T15:39:04;9.50;72.60
47546;DHT22;50104;52.002;4.688;2023-03-14T15:44:06;9.50;73.90
47546;DHT22;50104;52.002;4.688;2023-03-14T15:49:08;9.40;73.70
47546;DHT22;50104;52.002;4.688;2023-03-14T15:54:09;9.40;73.60
47546;DHT22;50104;52.002;4.688;2023-03-14T15:59:11;9.40;73.90
47546;DHT22;50104;52.002;4.688;2023-03-14T16:04:11;9.40;73.00
47546;DHT22;50104;52.002;4.688;2023-03-14T16:09:12;9.30;72.20
47546;DHT22;50104;52.002;4.688;2023-03-14T16:14:13;9.30;71.80
47546;DHT22;50104;52.002;4.688;2023-03-14T16:19:14;9.30;71.50
47546;DHT22;50104;52.002;4.688;2023-03-14T16:24:15;9.20;72.10
47546;DHT22;50104;52.002;4.688;2023-03-14T16:29:16;9.10;71.10
47546;DHT22;50104;52.002;4.688;2023-03-14T16:34:17;8.80;65.50
47546;DHT22;50104;52.002;4.688;2023-03-14T16:39:18;8.60;64.70
47546;DHT22;50104;52.002;4.688;2023-03-14T16:44:19;8.30;63.50
47546;DHT22;50104;52.002;4.688;2023-03-14T16:49:22;8.20;65.40
47546;DHT22;50104;52.002;4.688;2023-03-14T16:54:24;8.10;66.20
47546;DHT22;50104;52.002;4.688;2023-03-14T16:59:25;8.00;66.00
47546;DHT22;50104;52.002;4.688;2023-03-14T17:04:28;7.90;66.30
47546;DHT22;50104;52.002;4.688;2023-03-14T17:09:29;7.90;68.80
47546;DHT22;50104;52.002;4.688;2023-03-14T17:14:31;7.90;69.60
47546;DHT22;50104;52.002;4.688;2023-03-14T17:19:32;8.00;69.80
47546;DHT22;50104;52.002;4.688;2023-03-14T17:24:34;7.90;70.10
47546;DHT22;50104;52.002;4.688;2023-03-14T17:29:36;7.90;69.70
47546;DHT22;50104;52.002;4.688;2023-03-14T17:34:37;7.80;69.30
47546;DHT22;50104;52.002;4.688;2023-03-14T17:39:38;7.80;69.50
47546;DHT22;50104;52.002;4.688;2023-03-14T17:44:39;7.60;68.80
47546;DHT22;50104;52.002;4.688;2023-03-14T17:49:41;7.60;68.80
47546;DHT22;50104;52.002;4.688;2023-03-14T17:54:42;7.50;68.90
47546;DHT22;50104;52.002;4.688;2023-03-14T17:59:42;7.40;69.40
47546;DHT22;50104;52.002;4.688;2023-03-14T18:04:43;7.30;68.90
47546;DHT22;50104;52.002;4.688;2023-03-14T18:09:44;7.30;69.90
47546;DHT22;50104;52.002;4.688;2023-03-14T18:14:46;7.10;70.50
47546;DHT22;50104;52.002;4.688;2023-03-14T18:19:47;7.10;70.70
47546;DHT22;50104;52.002;4.688;2023-03-14T18:24:48;7.00;71.00
47546;DHT22;50104;52.002;4.688;2023-03-14T18:29:49;6.90;71.30
47546;DHT22;50104;52.002;4.688;2023-03-14T18:34:50;6.80;71.50
47546;DHT22;50104;52.002;4.688;2023-03-14T18:39:51;6.70;71.80
47546;DHT22;50104;52.002;4.688;2023-03-14T18:44:52;6.70;72.30
47546;DHT22;50104;52.002;4.688;2023-03-14T18:49:53;6.60;72.50
47546;DHT22;50104;52.002;4.688;2023-03-14T18:54:54;6.50;72.60
47546;DHT22;50104;52.002;4.688;2023-03-14T18:59:55;6.40;72.80
47546;DHT22;50104;52.002;4.688;2023-03-14T19:04:57;6.30;73.10
47546;DHT22;50104;52.002;4.688;2023-03-14T19:09:59;6.30;72.90
47546;DHT22;50104;52.002;4.688;2023-03-14T19:15:00;6.20;73.40
47546;DHT22;50104;52.002;4.688;2023-03-14T19:20:01;6.10;73.10
47546;DHT22;50104;52.002;4.688;2023-03-14T19:25:02;6.00;73.10
47546;DHT22;50104;52.002;4.688;2023-03-14T19:30:05;5.90;73.30
47546;DHT22;50104;52.002;4.688;2023-03-14T19:35:07;5.90;73.10
47546;DHT22;50104;52.002;4.688;2023-03-14T19:40:09;5.80;73.50
47546;DHT22;50104;52.002;4.688;2023-03-14T19:45:11;5.80;73.80
47546;DHT22;50104;52.002;4.688;2023-03-14T19:50:12;5.70;74.30
47546;DHT22;50104;52.002;4.688;2023-03-14T19:55:12;5.60;74.80
47546;DHT22;50104;52.002;4.688;2023-03-14T20:00:14;5.60;76.00
47546;DHT22;50104;52.002;4.688;2023-03-14T20:05:21;5.60;77.00
47546;DHT22;50104;52.002;4.688;2023-03-14T20:10:22;5.70;77.10
47546;DHT22;50104;52.002;4.688;2023-03-14T20:15:23;5.70;77.40
47546;DHT22;50104;52.002;4.688;2023-03-14T20:20:27;5.80;77.60
47546;DHT22;50104;52.002;4.688;2023-03-14T20:25:28;5.80;78.10
47546;DHT22;50104;52.002;4.688;2023-03-14T20:30:29;5.90;78.30
47546;DHT22;50104;52.002;4.688;2023-03-14T20:35:30;5.90;78.10
47546;DHT22;50104;52.002;4.688;2023-03-14T20:40:31;5.90;78.30
47546;DHT22;50104;52.002;4.688;2023-03-14T20:45:33;5.90;78.10
47546;DHT22;50104;52.002;4.688;2023-03-14T20:50:34;5.90;77.90
47546;DHT22;50104;52.002;4.688;2023-03-14T20:55:35;6.00;77.90
47546;DHT22;50104;52.002;4.688;2023-03-14T21:00:36;6.00;77.70
47546;DHT22;50104;52.002;4.688;2023-03-14T21:05:40;6.00;77.80
47546;DHT22;50104;52.002;4.688;2023-03-14T21:10:42;6.00;77.60
47546;DHT22;50104;52.002;4.688;2023-03-14T21:15:43;6.00;77.60
47546;DHT22;50104;52.002;4.688;2023-03-14T21:20:44;6.00;77.80
47546;DHT22;50104;52.002;4.688;2023-03-14T21:25:45;6.00;77.90
47546;DHT22;50104;52.002;4.688;2023-03-14T21:30:46;6.00;77.80
47546;DHT22;50104;52.002;4.688;2023-03-14T21:35:47;6.00;78.20
47546;DHT22;50104;52.002;4.688;2023-03-14T21:40:54;5.90;78.80
47546;DHT22;50104;52.002;4.688;2023-03-14T21:45:56;5.90;78.40
47546;DHT22;50104;52.002;4.688;2023-03-14T21:50:57;5.90;78.10
47546;DHT22;50104;52.002;4.688;2023-03-14T21:55:58;5.90;78.60
47546;DHT22;50104;52.002;4.688;2023-03-14T22:01:03;5.90;79.70
47546;DHT22;50104;52.002;4.688;2023-03-14T22:06:06;5.80;79.80
47546;DHT22;50104;52.002;4.688;2023-03-14T22:11:07;5.80;79.60
47546;DHT22;50104;52.002;4.688;2023-03-14T22:16:08;5.60;79.60
47546;DHT22;50104;52.002;4.688;2023-03-14T22:21:09;5.60;79.70
47546;DHT22;50104;52.002;4.688;2023-03-14T22:26:10;5.60;79.70
47546;DHT22;50104;52.002;4.688;2023-03-14T22:31:11;5.50;80.00
47546;DHT22;50104;52.002;4.688;2023-03-14T22:36:15;5.40;80.70
47546;DHT22;50104;52.002;4.688;2023-03-14T22:41:16;5.40;81.10
47546;DHT22;50104;52.002;4.688;2023-03-14T22:46:17;5.30;81.30
47546;DHT22;50104;52.002;4.688;2023-03-14T22:51:18;5.20;81.10
47546;DHT22;50104;52.002;4.688;2023-03-14T22:56:19;5.20;81.00
47546;DHT22;50104;52.002;4.688;2023-03-14T23:01:20;5.20;81.40
47546;DHT22;50104;52.002;4.688;2023-03-14T23:06:21;5.10;82.00
47546;DHT22;50104;52.002;4.688;2023-03-14T23:11:23;5.10;82.40
47546;DHT22;50104;52.002;4.688;2023-03-14T23:16:25;5.00;83.00
47546;DHT22;50104;52.002;4.688;2023-03-14T23:21:26;5.10;83.20
47546;DHT22;50104;52.002;4.688;2023-03-14T23:26:27;5.10;83.10
47546;DHT22;50104;52.002;4.688;2023-03-14T23:31:30;5.10;83.60
47546;DHT22;50104;52.002;4.688;2023-03-14T23:36:32;5.10;82.50
47546;DHT22;50104;52.002;4.688;2023-03-14T23:41:36;5.10;81.80
47546;DHT22;50104;52.002;4.688;2023-03-14T23:46:37;5.00;81.40
47546;DHT22;50104;52.002;4.688;2023-03-14T23:51:38;5.00;81.30
47546;DHT22;50104;52.002;4.688;2023-03-14T23:56:39;5.00;81.20
